Time;durP1;ratioP1;P1;durP2;ratioP2;P2;SDS_P1;SDS_P2;PMS_P1;PMS_P2;Temp;Humidity;BMP_temperature;BMP_pressure;BME280_temperature;BME280_humidity;BME280_pressure;Samples;Min_cycle;Max_cycle;Signal;HPM_P1;HPM_P2
2023/02/26 00:01:57;;;;;;;2.85;1.83;;;;;;;;;;4959744;28;20465;-75
2023/02/26 00:04:23;;;;;;;1.25;1.13;;;;;;;;;;4965788;28;20182;-75
2023/02/26 00:06:52;;;;;;;1.80;1.70;;;;;;;;;;4962322;28;20228;-76
2023/02/26 00:09:18;;;;;;;13.60;1.50;;;;;;;;;;4957508;28;20336;-76
2023/02/26 00:11:45;;;;;;;1.60;1.45;;;;;;;;;;4962526;28;20198;-76
2023/02/26 00:14:13;;;;;;;3.03;1.50;;;;;;;;;;4964996;28;20178;-75
2023/02/26 00:16:39;;;;;;;1.40;1.30;;;;;;;;;;4961838;28;20209;-75
2023/02/26 00:19:06;;;;;;;1.27;1.00;;;;;;;;;;4968875;28;20182;-76
2023/02/26 00:21:33;;;;;;;1.17;1.17;;;;;;;;;;4973058;28;20195;-74
2023/02/26 00:24:00;;;;;;;1.85;1.20;;;;;;;;;;4956272;28;20367;-75
2023/02/26 00:26:28;;;;;;;3.20;1.50;;;;;;;;;;4956811;28;20182;-75
2023/02/26 00:28:54;;;;;;;1.75;1.60;;;;;;;;;;4953121;28;20202;-74
2023/02/26 00:31:23;;;;;;;4.82;2.00;;;;;;;;;;4957423;28;20306;-75
2023/02/26 00:33:50;;;;;;;1.77;1.75;;;;;;;;;;4953099;28;20198;-76
2023/02/26 00:36:22;;;;;;;2.05;1.50;;;;;;;;;;4950388;28;20190;-76
2023/02/26 00:38:57;;;;;;;3.20;2.50;;;;;;;;;;4929804;28;20194;-75
2023/02/26 00:41:23;;;;;;;1.88;1.77;;;;;;;;;;4950304;28;20927;-76
2023/02/26 00:43:49;;;;;;;2.88;2.08;;;;;;;;;;4946653;28;20225;-75
2023/02/26 00:46:22;;;;;;;2.72;1.35;;;;;;;;;;4951537;28;20285;-76
2023/02/26 00:49:04;;;;;;;0.90;0.90;;;;;;;;;;4958901;28;20201;-77
2023/02/26 00:51:30;;;;;;;4.35;1.60;;;;;;;;;;4964929;28;20558;-75
2023/02/26 00:54:20;;;;;;;2.13;1.13;;;;;;;;;;4963384;28;20206;-75
2023/02/26 00:56:46;;;;;;;1.17;1.05;;;;;;;;;;4954073;28;20285;-76
2023/02/26 00:59:12;;;;;;;2.03;1.87;;;;;;;;;;4957383;28;20206;-75
2023/02/26 01:01:38;;;;;;;0.93;0.93;;;;;;;;;;4963354;28;20437;-75
2023/02/26 01:04:05;;;;;;;1.40;1.30;;;;;;;;;;4965467;28;20504;-75
2023/02/26 01:06:33;;;;;;;2.50;2.22;;;;;;;;;;4965008;28;20304;-75
2023/02/26 01:09:04;;;;;;;1.38;1.25;;;;;;;;;;4962546;28;20209;-75
2023/02/26 01:11:30;;;;;;;2.50;1.98;;;;;;;;;;4966593;28;20238;-75
2023/02/26 01:13:56;;;;;;;2.80;1.77;;;;;;;;;;4963237;28;20222;-75
2023/02/26 01:16:26;;;;;;;3.15;1.80;;;;;;;;;;4968852;28;20677;-76
2023/02/26 01:18:55;;;;;;;3.35;1.75;;;;;;;;;;4968008;28;20711;-74
2023/02/26 01:21:27;;;;;;;2.03;1.50;;;;;;;;;;4956749;28;20196;-75
2023/02/26 01:23:53;;;;;;;1.77;1.60;;;;;;;;;;4954735;28;20233;-75
2023/02/26 01:26:26;;;;;;;1.83;1.57;;;;;;;;;;4963445;28;20583;-75
2023/02/26 01:28:53;;;;;;;2.00;2.00;;;;;;;;;;4972932;28;20816;-76
2023/02/26 01:31:28;;;;;;;4.80;2.08;;;;;;;;;;4966625;28;20186;-77
2023/02/26 01:33:57;;;;;;;5.57;2.47;;;;;;;;;;4960501;28;20914;-76
2023/02/26 01:36:27;;;;;;;2.72;2.20;;;;;;;;;;4975290;28;20653;-76
2023/02/26 01:39:02;;;;;;;3.65;2.05;;;;;;;;;;4971709;28;20203;-76
2023/02/26 01:42:07;;;;;;;5.43;1.48;;;;;;;;;;4932812;28;20194;-76
2023/02/26 01:44:47;;;;;;;1.85;1.17;;;;;;;;;;4917752;29;20230;-75
2023/02/26 01:47:21;;;;;;;1.40;1.30;;;;;;;;;;4910785;29;20191;-75
2023/02/26 01:49:47;;;;;;;3.83;1.05;;;;;;;;;;4951311;28;20222;-76
2023/02/26 01:52:31;;;;;;;1.77;1.65;;;;;;;;;;4967054;28;20268;-76
2023/02/26 01:54:57;;;;;;;2.20;2.00;;;;;;;;;;4969993;28;20190;-75
2023/02/26 01:57:23;;;;;;;1.80;1.75;;;;;;;;;;4966525;28;20198;-74
2023/02/26 01:59:51;;;;;;;0.85;0.85;;;;;;;;;;4953622;28;20177;-75
2023/02/26 02:02:18;;;;;;;1.42;1.33;;;;;;;;;;4958839;28;20210;-75
2023/02/26 02:04:45;;;;;;;3.10;1.20;;;;;;;;;;4972457;28;20787;-76
2023/02/26 02:07:11;;;;;;;1.60;1.50;;;;;;;;;;4970697;28;20282;-75
2023/02/26 02:09:38;;;;;;;1.27;1.27;;;;;;;;;;4974926;28;20387;-76
2023/02/26 02:12:07;;;;;;;2.20;1.10;;;;;;;;;;4953075;28;20186;-74
2023/02/26 02:14:52;;;;;;;2.95;1.65;;;;;;;;;;4969607;28;20757;-75
2023/02/26 02:17:27;;;;;;;2.03;1.90;;;;;;;;;;4968042;28;20542;-75
2023/02/26 02:20:11;;;;;;;1.00;0.90;;;;;;;;;;4969959;28;20177;-76
2023/02/26 02:23:13;;;;;;;9.82;1.67;;;;;;;;;;4935825;28;20226;-75
2023/02/26 02:25:51;;;;;;;2.65;2.55;;;;;;;;;;4854429;29;20184;-75
2023/02/26 02:28:35;;;;;;;1.10;1.10;;;;;;;;;;4951227;28;20199;-75
2023/02/26 02:31:20;;;;;;;0.77;0.77;;;;;;;;;;4965107;28;20186;-74
2023/02/26 02:33:51;;;;;;;1.30;1.05;;;;;;;;;;4967066;28;20225;-75
2023/02/26 02:36:47;;;;;;;2.38;1.35;;;;;;;;;;4972775;28;20808;-74
2023/02/26 02:39:22;;;;;;;1.17;0.93;;;;;;;;;;4882643;28;20251;-76
2023/02/26 02:42:15;;;;;;;1.27;1.23;;;;;;;;;;4963464;28;20185;-76
2023/02/26 02:44:43;;;;;;;4.43;2.72;;;;;;;;;;4965040;28;20677;-75
2023/02/26 02:47:10;;;;;;;2.17;1.60;;;;;;;;;;4967476;28;20221;-75
2023/02/26 02:49:39;;;;;;;5.40;1.00;;;;;;;;;;4970231;28;20738;-75
2023/02/26 02:52:09;;;;;;;1.02;1.02;;;;;;;;;;4968427;28;20191;-75
2023/02/26 02:54:35;;;;;;;1.27;1.10;;;;;;;;;;4965590;28;20279;-74
2023/02/26 02:57:04;;;;;;;4.72;4.32;;;;;;;;;;4971484;28;20237;-75
2023/02/26 02:59:32;;;;;;;2.40;2.20;;;;;;;;;;4964755;28;20190;-75
2023/02/26 03:02:14;;;;;;;1.08;0.90;;;;;;;;;;4967806;28;20462;-76
2023/02/26 03:04:41;;;;;;;3.38;2.30;;;;;;;;;;4969429;28;20184;-74
2023/02/26 03:07:07;;;;;;;2.35;1.40;;;;;;;;;;4961352;28;20175;-75
2023/02/26 03:09:33;;;;;;;5.82;1.40;;;;;;;;;;4965505;28;20182;-73
2023/02/26 03:11:59;;;;;;;1.70;1.23;;;;;;;;;;4960606;28;20209;-75
2023/02/26 03:14:25;;;;;;;0.90;0.90;;;;;;;;;;4965978;28;20210;-74
2023/02/26 03:16:51;;;;;;;2.30;1.13;;;;;;;;;;4970782;28;20205;-74
2023/02/26 03:19:36;;;;;;;1.30;1.15;;;;;;;;;;4965377;28;20193;-74
2023/02/26 03:22:06;;;;;;;2.45;0.95;;;;;;;;;;4960786;28;20192;-74
2023/02/26 03:24:36;;;;;;;3.45;1.30;;;;;;;;;;4967408;28;20545;-74
2023/02/26 03:27:29;;;;;;;1.05;1.00;;;;;;;;;;4965574;28;20189;-75
2023/02/26 03:29:57;;;;;;;2.95;0.93;;;;;;;;;;4966075;28;20661;-74
2023/02/26 03:32:35;;;;;;;3.45;3.03;;;;;;;;;;4964995;28;20201;-74
2023/02/26 03:35:05;;;;;;;0.77;0.77;;;;;;;;;;4966880;28;20201;-74
2023/02/26 03:37:37;;;;;;;1.20;1.08;;;;;;;;;;4964530;28;20265;-75
2023/02/26 03:40:07;;;;;;;1.58;1.48;;;;;;;;;;4970023;28;20498;-75
2023/02/26 03:42:39;;;;;;;3.20;1.05;;;;;;;;;;4963903;28;20252;-76
2023/02/26 03:45:14;;;;;;;3.47;1.63;;;;;;;;;;4968996;28;20220;-74
2023/02/26 03:47:42;;;;;;;3.22;1.25;;;;;;;;;;4965443;28;20209;-76
2023/02/26 03:50:15;;;;;;;0.93;0.90;;;;;;;;;;4963453;28;20230;-75
2023/02/26 03:52:42;;;;;;;0.98;0.98;;;;;;;;;;4964423;28;20198;-75
2023/02/26 03:55:20;;;;;;;2.00;1.00;;;;;;;;;;4967844;28;20180;-75
2023/02/26 03:57:46;;;;;;;2.90;1.45;;;;;;;;;;4968186;28;20209;-75
2023/02/26 04:00:13;;;;;;;1.25;1.25;;;;;;;;;;4972256;28;20242;-75
2023/02/26 04:03:02;;;;;;;1.65;1.20;;;;;;;;;;4960054;28;20205;-75
2023/02/26 04:05:30;;;;;;;1.10;1.10;;;;;;;;;;4951969;28;20301;-74
2023/02/26 04:07:57;;;;;;;0.88;0.88;;;;;;;;;;4960151;28;20202;-75
2023/02/26 04:10:28;;;;;;;1.13;1.13;;;;;;;;;;4964291;28;20188;-75
2023/02/26 04:12:54;;;;;;;1.55;1.45;;;;;;;;;;4959862;28;20198;-75
2023/02/26 04:15:20;;;;;;;0.90;0.90;;;;;;;;;;4968424;28;20229;-76
2023/02/26 04:17:46;;;;;;;3.50;1.40;;;;;;;;;;4968497;28;20252;-75
2023/02/26 04:20:12;;;;;;;2.43;1.13;;;;;;;;;;4972188;28;20182;-74
2023/02/26 04:22:38;;;;;;;1.45;1.35;;;;;;;;;;4968492;28;20475;-75
2023/02/26 04:25:05;;;;;;;8.20;1.20;;;;;;;;;;4971692;28;20301;-74
2023/02/26 04:27:31;;;;;;;1.40;1.30;;;;;;;;;;4972391;28;20204;-75
2023/02/26 04:29:57;;;;;;;3.03;1.38;;;;;;;;;;4971072;28;20214;-75
2023/02/26 04:32:23;;;;;;;2.88;2.10;;;;;;;;;;4970372;28;20210;-74
2023/02/26 04:34:49;;;;;;;0.80;0.80;;;;;;;;;;4970447;28;20189;-75
2023/02/26 04:37:15;;;;;;;2.37;2.27;;;;;;;;;;4966750;28;20447;-75
2023/02/26 04:39:41;;;;;;;1.20;1.20;;;;;;;;;;4970972;28;20428;-75
2023/02/26 04:42:07;;;;;;;2.55;1.08;;;;;;;;;;4970064;28;20279;-75
2023/02/26 04:44:33;;;;;;;5.38;1.50;;;;;;;;;;4973563;28;21120;-75
2023/02/26 04:46:59;;;;;;;2.10;1.83;;;;;;;;;;4972958;28;20221;-74
2023/02/26 04:49:25;;;;;;;1.23;1.23;;;;;;;;;;4969421;28;20475;-76
2023/02/26 04:51:51;;;;;;;1.33;1.23;;;;;;;;;;4970268;28;20422;-75
2023/02/26 04:54:17;;;;;;;2.88;1.50;;;;;;;;;;4966556;28;20450;-74
2023/02/26 04:56:43;;;;;;;1.50;1.40;;;;;;;;;;4959148;28;20664;-74
2023/02/26 04:59:09;;;;;;;7.93;1.83;;;;;;;;;;4959940;28;20450;-74
2023/02/26 05:01:35;;;;;;;1.50;1.40;;;;;;;;;;4965193;28;20264;-75
2023/02/26 05:04:01;;;;;;;2.15;1.38;;;;;;;;;;4972095;28;20476;-76
2023/02/26 05:06:27;;;;;;;1.70;1.42;;;;;;;;;;4965755;28;23119;-74
2023/02/26 05:08:53;;;;;;;1.20;1.20;;;;;;;;;;4975139;28;20198;-83
2023/02/26 05:11:19;;;;;;;3.72;1.60;;;;;;;;;;4968391;28;20460;-79
2023/02/26 05:13:46;;;;;;;1.40;1.30;;;;;;;;;;4962077;28;20189;-74
2023/02/26 05:16:12;;;;;;;1.55;1.45;;;;;;;;;;4939648;28;20882;-74
2023/02/26 05:18:38;;;;;;;2.40;1.83;;;;;;;;;;4970260;28;20263;-73
2023/02/26 05:21:04;;;;;;;1.00;0.90;;;;;;;;;;4950381;28;20411;-74
2023/02/26 05:23:30;;;;;;;2.17;1.35;;;;;;;;;;4964015;28;20511;-74
2023/02/26 05:25:57;;;;;;;1.30;1.30;;;;;;;;;;4959278;28;20201;-74
2023/02/26 05:28:23;;;;;;;2.67;1.38;;;;;;;;;;4944194;28;20620;-73
2023/02/26 05:30:49;;;;;;;1.45;1.45;;;;;;;;;;4961063;28;20205;-75
2023/02/26 05:33:15;;;;;;;1.42;1.10;;;;;;;;;;4968073;28;20190;-74
2023/02/26 05:35:41;;;;;;;1.45;1.35;;;;;;;;;;4960390;28;20200;-74
2023/02/26 05:38:07;;;;;;;1.75;1.65;;;;;;;;;;4966084;28;20187;-75
2023/02/26 05:40:33;;;;;;;1.80;1.40;;;;;;;;;;4956572;28;20221;-74
2023/02/26 05:42:59;;;;;;;2.05;1.45;;;;;;;;;;4957962;28;20202;-75
2023/02/26 05:45:25;;;;;;;3.70;1.40;;;;;;;;;;4953792;28;20208;-74
2023/02/26 05:47:52;;;;;;;1.33;1.23;;;;;;;;;;4979195;28;20525;-74
2023/02/26 05:50:18;;;;;;;1.60;1.55;;;;;;;;;;4954449;28;20197;-74
2023/02/26 05:52:44;;;;;;;1.15;1.13;;;;;;;;;;4968298;28;20189;-75
2023/02/26 05:55:10;;;;;;;2.70;2.05;;;;;;;;;;4967415;28;20215;-75
2023/02/26 05:57:36;;;;;;;6.93;1.70;;;;;;;;;;4963318;28;20219;-75
2023/02/26 06:00:03;;;;;;;0.90;0.82;;;;;;;;;;4962590;28;20454;-73
2023/02/26 06:02:29;;;;;;;1.40;1.30;;;;;;;;;;4956832;28;20252;-74
2023/02/26 06:04:55;;;;;;;0.93;0.90;;;;;;;;;;4966953;28;20217;-75
2023/02/26 06:07:21;;;;;;;1.37;0.97;;;;;;;;;;4956902;28;21234;-74
2023/02/26 06:09:47;;;;;;;1.63;1.15;;;;;;;;;;4952120;28;20488;-75
2023/02/26 06:12:13;;;;;;;1.40;1.30;;;;;;;;;;4959095;28;20287;-75
2023/02/26 06:14:39;;;;;;;2.30;2.00;;;;;;;;;;4968206;28;20464;-75
2023/02/26 06:17:05;;;;;;;1.97;1.97;;;;;;;;;;4959624;28;20436;-74
2023/02/26 06:19:31;;;;;;;2.00;1.77;;;;;;;;;;4963186;28;20470;-74
2023/02/26 06:21:57;;;;;;;1.15;1.15;;;;;;;;;;4953634;28;20724;-74
2023/02/26 06:24:24;;;;;;;1.52;1.45;;;;;;;;;;4966336;28;20215;-74
2023/02/26 06:26:50;;;;;;;1.17;1.17;;;;;;;;;;4968296;28;20743;-74
2023/02/26 06:29:17;;;;;;;2.77;1.33;;;;;;;;;;4965030;28;20195;-74
2023/02/26 06:31:43;;;;;;;1.48;0.93;;;;;;;;;;4967017;28;20443;-74
2023/02/26 06:34:09;;;;;;;3.90;1.85;;;;;;;;;;4966291;28;20253;-74
2023/02/26 06:36:35;;;;;;;2.87;1.57;;;;;;;;;;4966739;28;20288;-74
2023/02/26 06:39:01;;;;;;;5.97;2.80;;;;;;;;;;4971702;28;21075;-74
2023/02/26 06:41:27;;;;;;;2.20;0.93;;;;;;;;;;4947512;28;20485;-74
2023/02/26 06:43:53;;;;;;;2.00;1.70;;;;;;;;;;4948599;28;20476;-75
2023/02/26 06:46:19;;;;;;;4.70;1.50;;;;;;;;;;4966059;28;20197;-75
2023/02/26 06:48:45;;;;;;;1.60;1.60;;;;;;;;;;4943720;28;21212;-75
2023/02/26 06:51:11;;;;;;;1.27;1.27;;;;;;;;;;4970045;28;20339;-76
2023/02/26 06:53:37;;;;;;;3.05;2.88;;;;;;;;;;4946661;28;20892;-75
2023/02/26 06:56:04;;;;;;;2.85;1.52;;;;;;;;;;4964435;28;20190;-75
2023/02/26 06:58:30;;;;;;;1.35;1.35;;;;;;;;;;4951011;28;20182;-75
2023/02/26 07:00:56;;;;;;;1.88;1.88;;;;;;;;;;4972450;28;20197;-74
2023/02/26 07:03:22;;;;;;;1.90;1.80;;;;;;;;;;4969981;28;20205;-75
2023/02/26 07:05:48;;;;;;;2.20;2.10;;;;;;;;;;4967375;28;20213;-75
2023/02/26 07:08:14;;;;;;;1.75;1.65;;;;;;;;;;4973946;28;20193;-73
2023/02/26 07:10:40;;;;;;;1.77;1.77;;;;;;;;;;4959798;28;20684;-75
2023/02/26 07:13:07;;;;;;;2.45;1.50;;;;;;;;;;4956202;28;20731;-74
2023/02/26 07:15:33;;;;;;;1.20;1.20;;;;;;;;;;4949963;28;20207;-73
2023/02/26 07:17:59;;;;;;;1.90;1.80;;;;;;;;;;4961349;28;20207;-75
2023/02/26 07:20:25;;;;;;;3.35;2.95;;;;;;;;;;4957733;28;20265;-74
2023/02/26 07:22:51;;;;;;;1.58;1.10;;;;;;;;;;4957635;28;20680;-75
2023/02/26 07:25:17;;;;;;;2.63;2.53;;;;;;;;;;4970335;28;20213;-85
2023/02/26 07:27:43;;;;;;;3.13;3.03;;;;;;;;;;4959756;28;20433;-83
2023/02/26 07:30:10;;;;;;;5.03;4.70;;;;;;;;;;4960643;28;20653;-75
2023/02/26 07:32:36;;;;;;;6.50;6.10;;;;;;;;;;4935769;28;21659;-75
2023/02/26 07:35:03;;;;;;;2.10;2.10;;;;;;;;;;4969778;28;20193;-75
2023/02/26 07:37:35;;;;;;;1.30;1.30;;;;;;;;;;4973340;28;20213;-77
2023/02/26 07:40:01;;;;;;;3.70;2.00;;;;;;;;;;4954989;28;20893;-76
2023/02/26 07:42:27;;;;;;;1.95;1.85;;;;;;;;;;4962598;28;20210;-79
2023/02/26 07:44:53;;;;;;;1.53;1.40;;;;;;;;;;4954608;28;20248;-75
2023/02/26 07:47:19;;;;;;;2.50;1.30;;;;;;;;;;4960960;28;20450;-76
2023/02/26 07:49:45;;;;;;;1.80;1.60;;;;;;;;;;4957959;28;20899;-76
2023/02/26 07:52:11;;;;;;;3.20;1.70;;;;;;;;;;4948814;28;21154;-76
2023/02/26 07:54:37;;;;;;;1.60;1.43;;;;;;;;;;4968298;28;20455;-75
2023/02/26 07:57:03;;;;;;;2.90;1.55;;;;;;;;;;4973355;28;20427;-76
2023/02/26 07:59:29;;;;;;;2.38;2.28;;;;;;;;;;4968103;28;20207;-79
2023/02/26 08:01:58;;;;;;;1.43;1.43;;;;;;;;;;4969763;28;20166;-77
2023/02/26 08:04:24;;;;;;;1.90;1.90;;;;;;;;;;4965614;28;20972;-76
2023/02/26 08:06:50;;;;;;;7.73;2.17;;;;;;;;;;4973493;28;20221;-78
2023/02/26 08:09:19;;;;;;;6.20;2.17;;;;;;;;;;4971138;28;20456;-77
2023/02/26 08:11:46;;;;;;;1.73;1.73;;;;;;;;;;4969678;28;20220;-83
2023/02/26 08:14:12;;;;;;;1.92;1.77;;;;;;;;;;4956771;28;20227;-81
2023/02/26 08:16:38;;;;;;;1.40;1.40;;;;;;;;;;4952212;28;20225;-75
2023/02/26 08:19:04;;;;;;;1.67;1.17;;;;;;;;;;4932803;28;20457;-75
2023/02/26 08:21:30;;;;;;;3.15;1.70;;;;;;;;;;4939034;28;20197;-77
2023/02/26 08:23:56;;;;;;;6.13;2.60;;;;;;;;;;4937749;28;20293;-74
2023/02/26 08:26:22;;;;;;;2.28;1.55;;;;;;;;;;4952672;28;20433;-74
2023/02/26 08:28:48;;;;;;;2.17;1.97;;;;;;;;;;4948405;28;20183;-76
2023/02/26 08:31:15;;;;;;;1.77;1.10;;;;;;;;;;4953115;28;20538;-77
2023/02/26 08:33:42;;;;;;;1.50;1.50;;;;;;;;;;4955066;28;20463;-76
2023/02/26 08:36:08;;;;;;;1.37;1.37;;;;;;;;;;4953640;28;20537;-77
2023/02/26 08:38:34;;;;;;;1.33;1.33;;;;;;;;;;4955185;28;20441;-76
2023/02/26 08:41:00;;;;;;;0.60;0.60;;;;;;;;;;4949455;28;20456;-76
2023/02/26 08:43:26;;;;;;;1.30;1.20;;;;;;;;;;4953262;28;20488;-77
2023/02/26 08:45:53;;;;;;;2.80;1.70;;;;;;;;;;4952932;28;20469;-76
2023/02/26 08:48:19;;;;;;;2.23;1.23;;;;;;;;;;4950420;28;20621;-77
2023/02/26 08:50:45;;;;;;;3.60;1.27;;;;;;;;;;4950341;28;20453;-76
2023/02/26 08:53:12;;;;;;;1.10;1.10;;;;;;;;;;4945364;28;20823;-75
2023/02/26 08:55:38;;;;;;;2.23;1.40;;;;;;;;;;4948681;28;20533;-76
2023/02/26 08:58:04;;;;;;;0.83;0.83;;;;;;;;;;4943682;28;20476;-78
2023/02/26 09:00:30;;;;;;;1.27;1.23;;;;;;;;;;4947820;28;20559;-76
2023/02/26 09:02:57;;;;;;;1.60;1.10;;;;;;;;;;4933145;28;20473;-84
2023/02/26 09:05:27;;;;;;;1.43;1.33;;;;;;;;;;4966061;28;20456;-84
2023/02/26 09:07:54;;;;;;;1.50;1.40;;;;;;;;;;4952047;28;20841;-77
2023/02/26 09:10:20;;;;;;;1.10;1.10;;;;;;;;;;4948571;28;20449;-76
2023/02/26 09:12:46;;;;;;;1.13;1.10;;;;;;;;;;4945542;28;20461;-76
2023/02/26 09:15:13;;;;;;;1.77;1.30;;;;;;;;;;4948215;28;21084;-78
2023/02/26 09:17:39;;;;;;;0.90;0.90;;;;;;;;;;4944820;28;21037;-76
2023/02/26 09:20:06;;;;;;;1.67;1.17;;;;;;;;;;4948531;28;20500;-77
2023/02/26 09:22:32;;;;;;;1.50;1.10;;;;;;;;;;4951929;28;20469;-76
2023/02/26 09:24:59;;;;;;;2.67;1.03;;;;;;;;;;4954318;28;20913;-76
2023/02/26 09:27:25;;;;;;;1.90;1.90;;;;;;;;;;4957776;28;21111;-77
2023/02/26 09:29:51;;;;;;;7.90;1.23;;;;;;;;;;4961040;28;21340;-77
2023/02/26 09:32:17;;;;;;;1.63;1.53;;;;;;;;;;4969781;28;20474;-77
2023/02/26 09:34:43;;;;;;;1.07;1.07;;;;;;;;;;4968546;28;20523;-78
2023/02/26 09:37:09;;;;;;;1.43;1.43;;;;;;;;;;4971111;28;20458;-78
2023/02/26 09:39:35;;;;;;;2.33;1.40;;;;;;;;;;4974299;28;20592;-77
2023/02/26 09:42:21;;;;;;;3.30;1.33;;;;;;;;;;4939932;28;20475;-77
2023/02/26 09:44:48;;;;;;;1.53;1.50;;;;;;;;;;4952026;28;21227;-78
2023/02/26 09:47:20;;;;;;;0.97;0.90;;;;;;;;;;4939375;28;20577;-81
2023/02/26 09:49:55;;;;;;;1.00;1.00;;;;;;;;;;4926998;28;21025;-81
2023/02/26 09:52:21;;;;;;;1.10;1.10;;;;;;;;;;4949592;28;20458;-80
2023/02/26 09:54:50;;;;;;;1.90;1.10;;;;;;;;;;4949623;28;20453;-81
2023/02/26 09:57:33;;;;;;;1.03;0.90;;;;;;;;;;4949140;28;20468;-82
2023/02/26 10:00:00;;;;;;;1.07;1.07;;;;;;;;;;4943043;28;20541;-81
2023/02/26 10:02:33;;;;;;;2.37;0.97;;;;;;;;;;4941367;28;20548;-80
2023/02/26 10:05:18;;;;;;;1.80;1.30;;;;;;;;;;4958651;28;20496;-82
2023/02/26 10:07:50;;;;;;;2.20;1.20;;;;;;;;;;4962779;28;20530;-79
2023/02/26 10:10:35;;;;;;;1.30;1.10;;;;;;;;;;4967213;28;20493;-81
2023/02/26 10:13:03;;;;;;;2.20;1.10;;;;;;;;;;4966113;28;20449;-81
2023/02/26 10:15:32;;;;;;;0.77;0.77;;;;;;;;;;4964104;28;20421;-81
2023/02/26 10:18:01;;;;;;;3.20;1.80;;;;;;;;;;4970345;28;20445;-83
2023/02/26 10:20:49;;;;;;;1.03;1.03;;;;;;;;;;4963540;28;20445;-78
2023/02/26 10:23:28;;;;;;;1.27;1.17;;;;;;;;;;4943609;28;20474;-79
2023/02/26 10:26:00;;;;;;;1.20;1.20;;;;;;;;;;4967119;28;20436;-80
2023/02/26 10:28:49;;;;;;;1.00;0.90;;;;;;;;;;4964574;28;20405;-79
2023/02/26 10:31:24;;;;;;;1.30;1.07;;;;;;;;;;4919247;28;20484;-83
2023/02/26 10:33:56;;;;;;;1.80;0.80;;;;;;;;;;4987368;28;20424;-82
2023/02/26 10:36:25;;;;;;;1.30;1.00;;;;;;;;;;4963920;28;20864;-81
2023/02/26 10:38:56;;;;;;;1.27;1.17;;;;;;;;;;4957437;28;20440;-77
2023/02/26 10:41:26;;;;;;;1.67;0.80;;;;;;;;;;4945444;28;20492;-78
2023/02/26 10:44:04;;;;;;;2.00;1.90;;;;;;;;;;4952136;28;20478;-78
2023/02/26 10:46:35;;;;;;;1.03;1.03;;;;;;;;;;4952427;28;20551;-77
2023/02/26 10:49:19;;;;;;;0.80;0.80;;;;;;;;;;4950169;28;20465;-79
2023/02/26 10:51:46;;;;;;;1.00;1.00;;;;;;;;;;4954230;28;20445;-77
2023/02/26 10:54:15;;;;;;;1.27;1.00;;;;;;;;;;4950242;28;20445;-79
2023/02/26 10:56:42;;;;;;;0.93;0.93;;;;;;;;;;4961765;28;20433;-79
2023/02/26 10:59:08;;;;;;;0.90;0.90;;;;;;;;;;4957919;28;20528;-81
2023/02/26 11:01:34;;;;;;;1.60;0.80;;;;;;;;;;4965056;28;20517;-77
2023/02/26 11:04:22;;;;;;;0.70;0.70;;;;;;;;;;4937109;28;20460;-83
2023/02/26 11:06:53;;;;;;;4.17;3.80;;;;;;;;;;4978851;28;20468;-85
2023/02/26 11:09:22;;;;;;;0.80;0.73;;;;;;;;;;4955806;28;20496;-81
2023/02/26 11:11:48;;;;;;;3.03;1.63;;;;;;;;;;4949577;28;20980;-80
2023/02/26 11:14:15;;;;;;;0.50;0.50;;;;;;;;;;4950582;28;20544;-80
2023/02/26 11:16:42;;;;;;;0.90;0.87;;;;;;;;;;4948097;28;20453;-79
2023/02/26 11:19:08;;;;;;;0.70;0.70;;;;;;;;;;4951668;28;20461;-78
2023/02/26 11:21:37;;;;;;;0.70;0.70;;;;;;;;;;4959442;28;20453;-77
2023/02/26 11:24:06;;;;;;;0.90;0.90;;;;;;;;;;4959811;28;20487;-78
2023/02/26 11:26:34;;;;;;;1.73;1.03;;;;;;;;;;4953022;28;20449;-77
2023/02/26 11:29:00;;;;;;;0.70;0.70;;;;;;;;;;4956098;28;20578;-80
2023/02/26 11:31:26;;;;;;;0.83;0.83;;;;;;;;;;4938085;28;20822;-77
2023/02/26 11:33:56;;;;;;;1.23;1.23;;;;;;;;;;4958955;28;20540;-79
2023/02/26 11:36:26;;;;;;;1.07;0.93;;;;;;;;;;4975441;28;20440;-79
2023/02/26 11:39:01;;;;;;;3.27;1.33;;;;;;;;;;4977070;28;20845;-80
2023/02/26 11:41:28;;;;;;;1.30;1.20;;;;;;;;;;4965339;28;20491;-79
2023/02/26 11:44:14;;;;;;;2.77;2.57;;;;;;;;;;4964956;28;20476;-80
2023/02/26 11:47:07;;;;;;;1.40;1.40;;;;;;;;;;4965408;28;20485;-81
2023/02/26 11:49:33;;;;;;;0.90;0.90;;;;;;;;;;4962033;28;20460;-81
2023/02/26 11:52:03;;;;;;;1.43;1.43;;;;;;;;;;4960269;28;20457;-84
2023/02/26 11:54:29;;;;;;;0.70;0.70;;;;;;;;;;4993266;28;20440;-85
2023/02/26 11:57:00;;;;;;;1.23;1.23;;;;;;;;;;4996910;28;20428;-82
2023/02/26 11:59:30;;;;;;;0.87;0.87;;;;;;;;;;4977660;28;20498;-84
2023/02/26 12:01:59;;;;;;;1.60;1.50;;;;;;;;;;4995640;28;20436;-84
2023/02/26 12:04:25;;;;;;;0.80;0.80;;;;;;;;;;4985357;28;20480;-79
2023/02/26 12:06:52;;;;;;;0.77;0.77;;;;;;;;;;4952991;28;21081;-77
2023/02/26 12:09:20;;;;;;;0.87;0.80;;;;;;;;;;4967043;28;20904;-80
2023/02/26 12:11:49;;;;;;;1.60;1.00;;;;;;;;;;4977643;28;20515;-79
2023/02/26 12:14:21;;;;;;;0.67;0.67;;;;;;;;;;4973161;28;20516;-79
2023/02/26 12:17:02;;;;;;;1.80;1.33;;;;;;;;;;4974249;28;20507;-81
2023/02/26 12:19:34;;;;;;;0.80;0.80;;;;;;;;;;4952295;28;20528;-80
2023/02/26 12:22:19;;;;;;;0.83;0.83;;;;;;;;;;4972486;28;20425;-79
2023/02/26 12:25:04;;;;;;;2.67;1.40;;;;;;;;;;4959526;28;20488;-81
2023/02/26 12:27:49;;;;;;;1.03;1.03;;;;;;;;;;4946975;28;20541;-81
2023/02/26 12:30:24;;;;;;;0.90;0.90;;;;;;;;;;4958498;28;20468;-79
2023/02/26 12:32:50;;;;;;;0.67;0.67;;;;;;;;;;4964275;28;20447;-76
2023/02/26 12:35:16;;;;;;;0.93;0.93;;;;;;;;;;4962521;28;20955;-79
2023/02/26 12:37:49;;;;;;;0.90;0.90;;;;;;;;;;4957505;28;20959;-78
2023/02/26 12:40:30;;;;;;;0.60;0.60;;;;;;;;;;4963105;28;20446;-78
2023/02/26 12:43:06;;;;;;;4.63;1.37;;;;;;;;;;4929924;28;20603;-79
2023/02/26 12:45:35;;;;;;;1.33;1.33;;;;;;;;;;4969880;28;20456;-84
2023/02/26 12:48:20;;;;;;;0.73;0.73;;;;;;;;;;4982293;28;20445;-81
2023/02/26 12:51:06;;;;;;;1.10;1.10;;;;;;;;;;4950005;28;20452;-79
2023/02/26 12:53:32;;;;;;;0.93;0.93;;;;;;;;;;4954492;28;20472;-80
2023/02/26 12:56:17;;;;;;;1.57;1.57;;;;;;;;;;4951619;28;20483;-77
2023/02/26 12:59:02;;;;;;;2.63;2.10;;;;;;;;;;4942296;28;20445;-80
2023/02/26 13:01:37;;;;;;;1.40;1.40;;;;;;;;;;4955924;28;20468;-78
2023/02/26 13:04:13;;;;;;;1.00;1.00;;;;;;;;;;4954599;28;20480;-78
2023/02/26 13:06:57;;;;;;;0.80;0.80;;;;;;;;;;4969834;28;20491;-78
2023/02/26 13:09:23;;;;;;;0.77;0.77;;;;;;;;;;4955217;28;21022;-78
2023/02/26 13:11:57;;;;;;;2.00;1.10;;;;;;;;;;4934272;28;20445;-78
2023/02/26 13:14:38;;;;;;;0.97;0.80;;;;;;;;;;4952526;28;20453;-79
2023/02/26 13:17:04;;;;;;;1.20;1.20;;;;;;;;;;4955705;28;20457;-79
2023/02/26 13:19:48;;;;;;;1.10;1.10;;;;;;;;;;4965899;28;20434;-78
2023/02/26 13:22:20;;;;;;;1.03;1.03;;;;;;;;;;4949224;28;20963;-79
2023/02/26 13:24:49;;;;;;;2.17;1.80;;;;;;;;;;4970075;28;20580;-79
2023/02/26 13:27:16;;;;;;;1.10;1.10;;;;;;;;;;4961547;28;20469;-79
2023/02/26 13:29:46;;;;;;;0.90;0.90;;;;;;;;;;4969518;28;20460;-78
2023/02/26 13:32:26;;;;;;;1.57;1.53;;;;;;;;;;4945190;28;20496;-76
2023/02/26 13:34:55;;;;;;;1.23;1.23;;;;;;;;;;4985430;28;20431;-84
2023/02/26 13:37:29;;;;;;;1.10;1.10;;;;;;;;;;4972221;28;20465;-76
2023/02/26 13:40:06;;;;;;;1.23;1.13;;;;;;;;;;4932380;28;21410;-76
2023/02/26 13:42:54;;;;;;;1.87;1.70;;;;;;;;;;4949838;28;20452;-76
2023/02/26 13:45:21;;;;;;;1.50;1.40;;;;;;;;;;4945072;28;20922;-76
2023/02/26 13:47:47;;;;;;;1.33;1.30;;;;;;;;;;4944106;28;20457;-75
2023/02/26 13:50:18;;;;;;;1.90;1.60;;;;;;;;;;4947281;28;20569;-75
2023/02/26 13:52:52;;;;;;;1.17;1.17;;;;;;;;;;4954035;28;21023;-74
2023/02/26 13:55:41;;;;;;;2.10;0.80;;;;;;;;;;4955249;28;20535;-74
2023/02/26 13:58:17;;;;;;;1.27;1.27;;;;;;;;;;4944186;28;20449;-76
2023/02/26 14:00:56;;;;;;;1.20;1.20;;;;;;;;;;4950652;28;20539;-74
2023/02/26 14:03:25;;;;;;;1.30;1.30;;;;;;;;;;4948100;28;20611;-75
2023/02/26 14:06:01;;;;;;;1.37;1.37;;;;;;;;;;4957792;28;20465;-74
2023/02/26 14:08:39;;;;;;;1.93;1.10;;;;;;;;;;4954298;28;21396;-74
2023/02/26 14:11:24;;;;;;;2.80;2.70;;;;;;;;;;4958608;28;20449;-74
2023/02/26 14:14:09;;;;;;;2.00;1.90;;;;;;;;;;4950571;28;20615;-74
2023/02/26 14:16:35;;;;;;;1.33;1.33;;;;;;;;;;4947482;28;21315;-75
2023/02/26 14:19:24;;;;;;;0.70;0.70;;;;;;;;;;4952395;28;20480;-76
2023/02/26 14:21:50;;;;;;;0.93;0.93;;;;;;;;;;4946016;28;20488;-74
2023/02/26 14:24:22;;;;;;;1.27;1.27;;;;;;;;;;4947759;28;20834;-75
2023/02/26 14:26:50;;;;;;;3.03;2.40;;;;;;;;;;4947923;28;20448;-74
2023/02/26 14:29:20;;;;;;;1.57;1.13;;;;;;;;;;4951988;28;20458;-75
2023/02/26 14:31:46;;;;;;;0.93;0.77;;;;;;;;;;4948586;28;20453;-74
2023/02/26 14:34:14;;;;;;;2.30;1.37;;;;;;;;;;4947125;28;20453;-74
2023/02/26 14:36:48;;;;;;;4.20;3.90;;;;;;;;;;4953809;28;20468;-73
2023/02/26 14:39:24;;;;;;;2.90;2.70;;;;;;;;;;4964779;28;20471;-75
2023/02/26 14:41:53;;;;;;;1.43;1.20;;;;;;;;;;4952620;28;22643;-76
2023/02/26 14:44:24;;;;;;;1.30;1.00;;;;;;;;;;4954925;28;20487;-78
2023/02/26 14:46:51;;;;;;;1.20;1.20;;;;;;;;;;4951496;28;20548;-79
2023/02/26 14:49:29;;;;;;;1.13;1.13;;;;;;;;;;4950716;28;20486;-75
2023/02/26 14:52:01;;;;;;;3.90;1.47;;;;;;;;;;4951450;28;20523;-74
2023/02/26 14:54:27;;;;;;;0.80;0.80;;;;;;;;;;4935840;28;20597;-75
2023/02/26 14:57:15;;;;;;;2.67;1.80;;;;;;;;;;4953168;28;20494;-76
2023/02/26 14:59:41;;;;;;;2.10;2.10;;;;;;;;;;4944249;28;20456;-75
2023/02/26 15:02:43;;;;;;;5.93;1.57;;;;;;;;;;4932912;28;20452;-75